Aérodrome :
LOGIN :

S'inscrire | Disclaimer

   EN    FR    IT 

 










Légende :    VFR   VFR Marginal   IFR   IFR Intensif   IFR Très Intensif
Visi : 
Plafond : 
>= 8 km
>= 3000ft
5 à 8 km
1000 à 3000 ft
1500m à 5 km
500 à 1000 ft
800 à 1500m
200 à 500 ft
< 800m
< 200 ft
Symboles :   Orages  Brouillard  Fortes neiges  Fortes précipitations  Vent > 20 kt
SIGMETs :   Divers  Orages  Givrage  Turbulence  Onde Orograph.  Cendres Volcan.






- Altitude de l'aérodrome : 157 ft
- Code IATA : LIL


LFQQ - Lille Lesquin

DERNIER METAR :
  • 232230Z AUTO 04006KT CAVOK 20/12 Q1011 TEMPO SCT080CB

METARs EXPIRÉS :
  • 232200Z AUTO 04009KT CAVOK 20/12 Q1011 TEMPO SCT080CB
  • 232130Z AUTO 05009KT CAVOK 20/12 Q1011 TEMPO SCT080CB
  • 232100Z AUTO 06007KT CAVOK 21/12 Q1011 TEMPO SCT080CB
  • 232030Z AUTO 05009KT CAVOK 21/12 Q1011 TEMPO SCT080CB
  • 232000Z AUTO 05010KT CAVOK 22/12 Q1011 NOSIG

TAF TAF LFQQ
Valide du 23 à 18h jusqu'au 25 à 00h UTC


231700Z 2318/2424 05012KT CAVOK
TEMPO 2322/2404 SCT080CB
TEMPO 2404/2415 3000 TSRA BKN060CB
BECMG 2407/2410 20010KT
TEMPO 2418/2424 1200 TSRAGR BKN060CB
ATIS : +33 3 20 16 19 54



MET'MAP, la Météo Aéronautique d'un coup d'oeil ! - Copyright ORBIFLY Décembre 2007 - Disclaimer

ORBIFLY MET'MAP TEAM :

Programmation & Développement : Alexandra Zaïnal
Sur une idée originale de : Baudouin d'Aumeries
Assistance à la programmation : Marc-Olivier Méhu
Soutien technique & logistique : Manuel Goepfert

Contact : metmap@orbifly.com




SOURCES & CREDITS :

   NOAA